createdAt,value
2023-05-10T00:01:18.532Z,60.76
2023-05-10T00:04:06.944Z,60.65
2023-05-10T00:06:35.723Z,60.86
2023-05-10T00:09:04.647Z,60.82
2023-05-10T00:12:04.219Z,60.85
2023-05-10T00:14:36.123Z,60.95
2023-05-10T00:17:04.512Z,61.05
2023-05-10T00:19:35.858Z,61.15
2023-05-10T00:22:13.034Z,61.39
2023-05-10T00:25:07.870Z,61.25
2023-05-10T00:27:46.357Z,61.74
2023-05-10T00:31:35.533Z,62.04
2023-05-10T00:34:37.514Z,63.21
2023-05-10T00:37:08.376Z,63.34
2023-05-10T00:39:59.314Z,63.02
2023-05-10T00:42:29.157Z,62.25
2023-05-10T00:45:28.168Z,61.73
2023-05-10T00:48:13.248Z,61.79
2023-05-10T00:50:47.194Z,62.02
2023-05-10T00:53:40.412Z,62.36
2023-05-10T00:56:11.355Z,63.15
2023-05-10T00:58:53.246Z,63.74
2023-05-10T01:01:21.687Z,62.73
2023-05-10T01:03:50.527Z,62.52
2023-05-10T01:06:26.559Z,63.07
2023-05-10T01:09:02.323Z,63.34
2023-05-10T01:11:31.119Z,64.02
2023-05-10T01:14:00.208Z,63.98
2023-05-10T01:16:31.004Z,63.80
2023-05-10T01:19:00.238Z,63.65
2023-05-10T01:21:44.146Z,63.86
2023-05-10T01:24:58.041Z,63.68
2023-05-10T01:27:46.490Z,63.58
2023-05-10T01:30:38.944Z,63.48
2023-05-10T01:33:30.760Z,64.11
2023-05-10T01:36:01.786Z,64.09
2023-05-10T01:38:51.792Z,64.56
2023-05-10T01:41:31.217Z,64.93
2023-05-10T01:44:08.610Z,64.93
2023-05-10T01:46:39.525Z,64.86
2023-05-10T01:49:12.841Z,65.30
2023-05-10T01:51:47.453Z,65.50
2023-05-10T01:54:21.670Z,65.76
2023-05-10T01:57:06.606Z,65.49
2023-05-10T01:59:41.963Z,65.27
2023-05-10T02:02:13.106Z,65.57
2023-05-10T02:04:43.243Z,65.38
2023-05-10T02:07:13.196Z,65.56
2023-05-10T02:09:45.225Z,65.68
2023-05-10T02:12:15.092Z,65.81
2023-05-10T02:14:56.689Z,65.39
2023-05-10T02:17:37.300Z,65.96
2023-05-10T02:20:08.824Z,65.98
2023-05-10T02:22:38.049Z,66.05
2023-05-10T02:25:10.542Z,65.97
2023-05-10T02:27:41.161Z,66.54
2023-05-10T02:30:11.890Z,66.90
2023-05-10T02:32:40.710Z,67.11
2023-05-10T02:35:11.170Z,67.42
2023-05-10T02:37:41.129Z,68.09
2023-05-10T02:40:11.358Z,68.48
2023-05-10T02:42:43.471Z,68.37
2023-05-10T02:45:18.651Z,68.75
2023-05-10T02:47:47.171Z,68.65
2023-05-10T02:50:16.328Z,68.35
2023-05-10T02:53:00.204Z,68.47
2023-05-10T02:55:36.555Z,68.22
2023-05-10T02:58:07.711Z,68.20
2023-05-10T03:00:41.793Z,68.48
2023-05-10T03:03:09.949Z,68.62
2023-05-10T03:05:38.556Z,68.62
2023-05-10T03:08:10.529Z,68.86
2023-05-10T03:11:02.353Z,68.61
2023-05-10T03:14:14.459Z,68.88
2023-05-10T03:16:48.166Z,69.03
2023-05-10T03:19:34.251Z,69.05
2023-05-10T03:22:07.956Z,69.26
2023-05-10T03:24:37.811Z,69.19
2023-05-10T03:27:07.477Z,69.57
2023-05-10T03:29:37.293Z,69.60
2023-05-10T03:32:06.089Z,69.76
2023-05-10T03:34:34.318Z,69.92
2023-05-10T03:37:10.078Z,70.11
2023-05-10T03:39:38.866Z,70.25
2023-05-10T03:42:13.088Z,70.37
2023-05-10T03:44:41.495Z,70.63
2023-05-10T03:47:31.028Z,70.58
2023-05-10T03:49:59.754Z,70.76
2023-05-10T03:52:40.333Z,70.86
2023-05-10T03:55:08.926Z,70.64
2023-05-10T03:57:47.121Z,70.42
2023-05-10T04:00:15.943Z,70.49
2023-05-10T04:03:24.691Z,70.76
2023-05-10T04:06:23.267Z,71.10
2023-05-10T04:08:56.516Z,71.48
2023-05-10T04:11:35.952Z,71.59
2023-05-10T04:14:04.206Z,71.61
2023-05-10T04:16:35.114Z,70.75
2023-05-10T04:19:04.162Z,70.68
2023-05-10T04:21:32.503Z,70.31
2023-05-10T04:24:31.333Z,69.72
2023-05-10T04:27:04.780Z,69.50
2023-05-10T04:29:36.523Z,68.57
2023-05-10T04:32:17.386Z,68.65
2023-05-10T04:34:51.780Z,68.67
2023-05-10T04:38:00.869Z,68.66
2023-05-10T04:40:32.540Z,68.55
2023-05-10T04:43:21.435Z,68.14
2023-05-10T04:46:20.041Z,68.02
2023-05-10T04:48:51.665Z,67.88
2023-05-10T04:51:22.918Z,67.10
2023-05-10T04:54:30.948Z,66.68
2023-05-10T04:56:59.310Z,66.09
2023-05-10T04:59:30.865Z,64.88
2023-05-10T05:02:04.702Z,63.77
2023-05-10T05:04:33.243Z,61.95
2023-05-10T05:07:03.678Z,60.36
2023-05-10T05:09:52.164Z,59.24
2023-05-10T05:12:23.059Z,57.28
2023-05-10T05:14:51.476Z,55.75
2023-05-10T05:17:29.117Z,54.18
2023-05-10T05:20:11.143Z,52.76
2023-05-10T05:22:42.322Z,52.30
2023-05-10T05:25:17.910Z,51.19
2023-05-10T05:27:46.050Z,50.06
2023-05-10T05:30:14.780Z,49.51
2023-05-10T05:32:52.374Z,47.89
2023-05-10T05:35:20.871Z,44.47
2023-05-10T05:37:49.063Z,40.58
2023-05-10T05:40:17.220Z,37.31
2023-05-10T05:42:45.553Z,35.00
2023-05-10T05:45:14.468Z,33.00
2023-05-10T05:47:43.085Z,29.49
2023-05-10T05:50:11.695Z,28.92
2023-05-10T05:52:43.625Z,27.50
2023-05-10T05:55:12.134Z,27.03
2023-05-10T05:57:40.693Z,25.90
2023-05-10T06:00:09.705Z,25.40
2023-05-10T06:02:44.123Z,25.90
2023-05-10T06:05:12.375Z,26.43
2023-05-10T06:07:43.357Z,27.89
2023-05-10T06:10:11.602Z,28.74
2023-05-10T06:12:40.004Z,30.45
2023-05-10T06:15:14.109Z,31.69
2023-05-10T06:17:43.807Z,32.58
2023-05-10T06:20:12.607Z,33.81
2023-05-10T06:22:40.882Z,34.78
2023-05-10T06:25:10.272Z,35.46
2023-05-10T06:27:38.347Z,36.46
2023-05-10T06:30:12.963Z,37.20
2023-05-10T06:32:42.525Z,37.77
2023-05-10T06:35:10.954Z,38.62
2023-05-10T06:37:38.924Z,39.22
2023-05-10T06:40:08.241Z,39.76
2023-05-10T06:42:36.600Z,40.15
2023-05-10T06:45:05.387Z,40.61
2023-05-10T06:47:34.745Z,41.12
2023-05-10T06:50:04.833Z,41.71
2023-05-10T06:52:33.051Z,41.98
2023-05-10T06:55:01.462Z,42.06
2023-05-10T06:57:34.420Z,42.34
2023-05-10T07:00:06.842Z,42.55
2023-05-10T07:02:48.618Z,43.18
2023-05-10T07:05:17.053Z,43.04
2023-05-10T07:07:47.837Z,43.03
2023-05-10T07:10:16.303Z,42.78
2023-05-10T07:12:44.656Z,42.74
2023-05-10T07:15:13.484Z,42.93
2023-05-10T07:17:43.345Z,43.01
2023-05-10T07:20:14.559Z,42.82
2023-05-10T07:22:42.686Z,42.48
2023-05-10T07:25:11.102Z,42.74
2023-05-10T07:27:39.496Z,42.59
2023-05-10T07:30:12.089Z,42.66
2023-05-10T07:32:40.694Z,42.96
2023-05-10T07:35:09.785Z,42.41
2023-05-10T07:37:37.809Z,42.27
2023-05-10T07:40:09.478Z,42.45
2023-05-10T07:42:38.090Z,42.35
2023-05-10T07:45:15.882Z,42.37
2023-05-10T07:47:44.375Z,42.38
2023-05-10T07:50:12.696Z,42.49
2023-05-10T07:52:41.407Z,42.23
2023-05-10T07:55:10.538Z,42.08
2023-05-10T07:57:39.180Z,42.15
2023-05-10T08:00:19.256Z,42.10
2023-05-10T08:02:48.720Z,42.66
2023-05-10T08:05:17.546Z,42.32
2023-05-10T08:07:46.102Z,41.97
2023-05-10T08:10:42.252Z,42.31
2023-05-10T08:13:11.317Z,41.60
2023-05-10T08:15:39.646Z,41.65
2023-05-10T08:18:10.669Z,41.26
2023-05-10T08:20:41.690Z,41.22
2023-05-10T08:23:09.793Z,40.76
2023-05-10T08:25:51.312Z,41.16
2023-05-10T08:28:22.289Z,41.45
2023-05-10T08:30:53.463Z,41.43
2023-05-10T08:33:43.763Z,40.57
2023-05-10T08:36:33.304Z,40.59
2023-05-10T08:39:07.716Z,40.23
2023-05-10T08:42:00.570Z,39.93
2023-05-10T08:44:33.022Z,40.04
2023-05-10T08:47:06.044Z,39.44
2023-05-10T08:49:35.828Z,39.77
2023-05-10T08:52:26.233Z,39.11
2023-05-10T08:54:55.136Z,39.42
2023-05-10T08:57:28.123Z,39.43
2023-05-10T08:59:56.566Z,38.72
2023-05-10T09:02:29.126Z,38.43
2023-05-10T09:04:59.070Z,38.18
2023-05-10T09:07:28.295Z,38.09
2023-05-10T09:09:57.700Z,37.18
2023-05-10T09:12:27.827Z,36.76
2023-05-10T09:14:59.372Z,36.55
2023-05-10T09:17:35.984Z,36.71
2023-05-10T09:20:05.629Z,36.69
2023-05-10T09:22:35.424Z,37.16
2023-05-10T09:25:12.069Z,36.84
2023-05-10T09:27:41.853Z,37.09
2023-05-10T09:30:10.540Z,37.48
2023-05-10T09:32:43.966Z,38.09
2023-05-10T09:35:15.156Z,37.07
2023-05-10T09:37:48.680Z,36.56
2023-05-10T09:40:21.981Z,36.79
2023-05-10T09:43:01.732Z,36.96
2023-05-10T09:45:32.366Z,36.67
2023-05-10T09:48:03.076Z,37.25
2023-05-10T09:50:31.669Z,37.38
2023-05-10T09:53:02.101Z,36.99
2023-05-10T09:55:47.732Z,36.34
2023-05-10T09:58:16.432Z,36.23
2023-05-10T10:00:46.414Z,35.94
2023-05-10T10:03:43.233Z,35.62
2023-05-10T10:06:26.457Z,35.73
2023-05-10T10:08:58.228Z,35.35
2023-05-10T10:11:26.680Z,35.71
2023-05-10T10:13:55.811Z,34.75
2023-05-10T10:16:25.406Z,35.06
2023-05-10T10:18:53.647Z,35.39
2023-05-10T10:21:23.021Z,35.06
2023-05-10T10:23:52.086Z,34.55
2023-05-10T10:26:22.106Z,34.04
2023-05-10T10:29:24.609Z,33.70
2023-05-10T10:32:05.446Z,33.45
2023-05-10T10:34:36.800Z,32.35
2023-05-10T10:37:06.425Z,32.20
2023-05-10T10:39:37.653Z,31.92
2023-05-10T10:42:06.193Z,32.01
2023-05-10T10:44:38.974Z,32.17
2023-05-10T10:47:12.914Z,32.34
2023-05-10T10:49:41.764Z,33.20
2023-05-10T10:52:24.086Z,33.23
2023-05-10T10:55:03.262Z,32.20
2023-05-10T10:57:43.667Z,31.79
2023-05-10T11:00:32.306Z,31.81
2023-05-10T11:03:08.680Z,31.01
2023-05-10T11:05:38.467Z,30.85
2023-05-10T11:08:17.476Z,31.60
2023-05-10T11:10:54.076Z,31.12
2023-05-10T11:13:43.342Z,30.86
2023-05-10T11:16:16.337Z,31.31
2023-05-10T11:19:05.764Z,31.64
2023-05-10T11:21:35.689Z,32.76
2023-05-10T11:24:14.115Z,33.63
2023-05-10T11:26:43.315Z,33.21
2023-05-10T11:29:11.410Z,33.03
2023-05-10T11:31:45.794Z,32.22
2023-05-10T11:34:27.794Z,31.47
2023-05-10T11:36:57.400Z,31.63
2023-05-10T11:39:32.717Z,31.52
2023-05-10T11:42:01.327Z,31.53
2023-05-10T11:44:33.416Z,31.79
2023-05-10T11:47:02.702Z,32.16
2023-05-10T11:49:31.207Z,32.17
2023-05-10T11:52:12.556Z,32.14
2023-05-10T11:54:52.935Z,32.26
2023-05-10T11:57:22.583Z,32.38
2023-05-10T11:59:56.336Z,32.61
2023-05-10T12:02:25.405Z,32.06
2023-05-10T12:04:57.547Z,31.75
2023-05-10T12:07:27.233Z,31.03
2023-05-10T12:10:08.925Z,31.40
2023-05-10T12:12:48.499Z,31.54
2023-05-10T12:15:24.251Z,31.64
2023-05-10T12:17:55.888Z,31.56
2023-05-10T12:20:29.260Z,31.12
2023-05-10T12:23:00.689Z,31.20
2023-05-10T12:25:37.149Z,30.96
2023-05-10T12:28:08.851Z,31.07
2023-05-10T12:30:38.351Z,31.40
2023-05-10T12:33:13.563Z,31.39
2023-05-10T12:35:47.496Z,31.07
2023-05-10T12:38:52.236Z,31.15
2023-05-10T12:41:21.055Z,32.15
2023-05-10T12:43:49.784Z,31.15
2023-05-10T12:46:19.628Z,30.96
2023-05-10T12:49:08.017Z,31.29
2023-05-10T12:51:42.773Z,31.38
2023-05-10T12:54:19.830Z,31.08
2023-05-10T12:56:48.447Z,31.08
2023-05-10T12:59:16.933Z,30.92
2023-05-10T13:01:44.938Z,31.50
2023-05-10T13:04:13.776Z,30.99
2023-05-10T13:06:41.866Z,30.88
2023-05-10T13:09:09.813Z,30.90
2023-05-10T13:11:38.270Z,31.32
2023-05-10T13:14:06.593Z,31.42
2023-05-10T13:16:34.885Z,32.01
2023-05-10T13:19:04.052Z,31.95
2023-05-10T13:21:32.387Z,31.11
2023-05-10T13:24:01.473Z,30.37
2023-05-10T13:26:29.747Z,30.73
2023-05-10T13:29:01.164Z,30.88
2023-05-10T13:31:29.532Z,30.80
2023-05-10T13:33:58.414Z,30.80
2023-05-10T13:36:26.804Z,30.38
2023-05-10T13:38:54.956Z,30.39
2023-05-10T13:41:26.245Z,30.67
2023-05-10T13:43:54.711Z,30.73
2023-05-10T13:46:23.161Z,30.75
2023-05-10T13:48:51.272Z,30.71
2023-05-10T13:51:19.563Z,30.21
2023-05-10T13:53:48.248Z,30.54
2023-05-10T13:56:16.340Z,30.80
2023-05-10T13:58:45.090Z,30.33
2023-05-10T14:01:13.328Z,30.72
2023-05-10T14:03:41.752Z,31.15
2023-05-10T14:06:10.127Z,31.02
2023-05-10T14:08:38.598Z,30.71
2023-05-10T14:11:07.110Z,30.81
2023-05-10T14:13:36.494Z,30.57
2023-05-10T14:16:16.019Z,30.69
2023-05-10T14:18:44.353Z,30.91
2023-05-10T14:21:13.103Z,30.87
2023-05-10T14:23:41.104Z,30.38
2023-05-10T14:26:09.728Z,30.75
2023-05-10T14:28:46.646Z,31.20
2023-05-10T14:31:15.757Z,31.19
2023-05-10T14:33:44.313Z,31.08
2023-05-10T14:36:14.942Z,30.99
2023-05-10T14:38:46.441Z,31.51
2023-05-10T14:41:16.221Z,31.60
2023-05-10T14:43:44.748Z,31.84
2023-05-10T14:46:13.220Z,32.02
2023-05-10T14:48:44.412Z,32.40
2023-05-10T14:51:12.999Z,32.45
2023-05-10T14:53:41.278Z,32.37
2023-05-10T14:56:30.370Z,32.55
2023-05-10T14:58:58.687Z,32.90
2023-05-10T15:01:27.845Z,32.81
2023-05-10T15:03:59.184Z,33.06
2023-05-10T15:06:35.036Z,32.47
2023-05-10T15:09:04.637Z,32.48
2023-05-10T15:11:33.177Z,32.69
2023-05-10T15:14:02.798Z,32.62
2023-05-10T15:16:33.421Z,32.63
2023-05-10T15:19:03.528Z,32.29
2023-05-10T15:21:48.348Z,32.40
2023-05-10T15:24:16.817Z,32.70
2023-05-10T15:26:53.768Z,32.90
2023-05-10T15:29:27.213Z,32.68
2023-05-10T15:31:55.816Z,32.85
2023-05-10T15:34:24.362Z,33.05
2023-05-10T15:36:52.529Z,33.11
2023-05-10T15:39:48.358Z,33.13
2023-05-10T15:42:26.258Z,32.96
2023-05-10T15:44:55.358Z,33.29
2023-05-10T15:47:33.910Z,33.32
2023-05-10T15:50:02.173Z,33.53
2023-05-10T15:52:42.429Z,33.51
2023-05-10T15:55:13.841Z,33.59
2023-05-10T15:58:04.474Z,33.88
2023-05-10T16:00:32.684Z,34.07
2023-05-10T16:03:01.117Z,34.62
2023-05-10T16:05:41.309Z,34.66
2023-05-10T16:08:09.372Z,34.61
2023-05-10T16:10:38.237Z,35.04
2023-05-10T16:13:17.166Z,35.06
2023-05-10T16:15:45.194Z,34.93
2023-05-10T16:18:13.759Z,35.08
2023-05-10T16:21:02.283Z,35.22
2023-05-10T16:23:54.596Z,35.33
2023-05-10T16:26:33.129Z,35.63
2023-05-10T16:29:01.504Z,36.61
2023-05-10T16:31:53.164Z,36.57
2023-05-10T16:34:25.409Z,36.54
2023-05-10T16:37:04.037Z,36.66
2023-05-10T16:39:43.551Z,36.95
2023-05-10T16:42:11.693Z,37.08
2023-05-10T16:44:46.180Z,37.35
2023-05-10T16:47:14.753Z,37.34
2023-05-10T16:49:42.867Z,37.31
2023-05-10T16:52:11.188Z,37.38
2023-05-10T16:54:48.901Z,37.72
2023-05-10T16:57:19.319Z,38.03
2023-05-10T16:59:53.549Z,38.14
2023-05-10T17:02:27.431Z,38.38
2023-05-10T17:04:56.396Z,38.69
2023-05-10T17:07:26.283Z,38.80
2023-05-10T17:09:54.885Z,39.10
2023-05-10T17:12:23.245Z,39.43
2023-05-10T17:14:54.146Z,39.69
2023-05-10T17:17:23.610Z,40.11
2023-05-10T17:19:54.653Z,40.16
2023-05-10T17:22:22.972Z,40.49
2023-05-10T17:24:54.116Z,40.97
2023-05-10T17:27:25.305Z,41.06
2023-05-10T17:30:05.323Z,41.89
2023-05-10T17:32:56.504Z,42.13
2023-05-10T17:35:25.116Z,41.82
2023-05-10T17:37:54.141Z,42.12
2023-05-10T17:40:22.377Z,42.50
2023-05-10T17:42:50.779Z,42.71
2023-05-10T17:45:28.230Z,43.33
2023-05-10T17:48:11.526Z,43.74
2023-05-10T17:50:43.500Z,44.02
2023-05-10T17:53:11.734Z,44.67
2023-05-10T17:55:42.064Z,44.93
2023-05-10T17:58:11.914Z,45.10
2023-05-10T18:00:40.506Z,44.85
2023-05-10T18:03:08.999Z,45.15
2023-05-10T18:05:38.995Z,45.47
2023-05-10T18:08:08.758Z,45.80
2023-05-10T18:10:41.683Z,46.16
2023-05-10T18:13:10.126Z,46.46
2023-05-10T18:15:38.402Z,46.53
2023-05-10T18:18:07.100Z,47.20
2023-05-10T18:20:35.666Z,47.52
2023-05-10T18:23:04.320Z,48.30
2023-05-10T18:25:32.987Z,48.03
2023-05-10T18:28:01.397Z,48.20
2023-05-10T18:30:29.570Z,48.12
2023-05-10T18:33:06.955Z,48.36
2023-05-10T18:35:45.858Z,47.88
2023-05-10T18:38:14.543Z,47.81
2023-05-10T18:40:42.868Z,48.19
2023-05-10T18:43:20.672Z,48.40
2023-05-10T18:45:51.386Z,48.13
2023-05-10T18:48:19.891Z,48.34
2023-05-10T18:50:48.588Z,48.23
2023-05-10T18:53:16.964Z,48.54
2023-05-10T18:55:46.588Z,48.84
2023-05-10T18:58:15.227Z,48.98
2023-05-10T19:00:43.628Z,49.02
2023-05-10T19:03:14.934Z,48.88
2023-05-10T19:05:43.146Z,49.40
2023-05-10T19:08:20.299Z,49.29
2023-05-10T19:10:48.404Z,49.24
2023-05-10T19:13:17.098Z,49.47
2023-05-10T19:15:45.216Z,49.48
2023-05-10T19:18:33.617Z,49.34
2023-05-10T19:21:09.749Z,49.43
2023-05-10T19:23:42.297Z,49.57
2023-05-10T19:26:36.311Z,49.61
2023-05-10T19:29:05.041Z,49.60
2023-05-10T19:31:53.703Z,49.75
2023-05-10T19:34:42.495Z,49.84
2023-05-10T19:37:13.275Z,49.89
2023-05-10T19:39:42.209Z,50.01
2023-05-10T19:42:10.650Z,49.99
2023-05-10T19:44:39.236Z,49.97
2023-05-10T19:47:09.108Z,50.08
2023-05-10T19:50:04.636Z,50.42
2023-05-10T19:52:32.889Z,50.60
2023-05-10T19:55:01.754Z,50.64
2023-05-10T19:57:30.141Z,50.39
2023-05-10T20:00:08.920Z,50.61
2023-05-10T20:03:00.070Z,50.82
2023-05-10T20:05:31.282Z,51.06
2023-05-10T20:08:20.084Z,51.18
2023-05-10T20:11:39.278Z,51.10
2023-05-10T20:14:17.481Z,51.25
2023-05-10T20:16:59.066Z,51.18
2023-05-10T20:19:39.603Z,51.57
2023-05-10T20:22:20.058Z,51.59
2023-05-10T20:24:48.388Z,51.88
2023-05-10T20:27:23.655Z,51.85
2023-05-10T20:29:54.502Z,51.99
2023-05-10T20:32:28.324Z,51.99
2023-05-10T20:35:27.091Z,52.05
2023-05-10T20:38:12.484Z,52.10
2023-05-10T20:40:40.628Z,52.18
2023-05-10T20:43:08.950Z,52.13
2023-05-10T20:45:39.946Z,52.22
2023-05-10T20:48:09.739Z,52.24
2023-05-10T20:50:38.364Z,52.40
2023-05-10T20:53:06.498Z,52.33
2023-05-10T20:55:34.728Z,52.61
2023-05-10T20:58:04.957Z,52.97
2023-05-10T21:00:33.515Z,52.87
2023-05-10T21:03:01.581Z,52.69
2023-05-10T21:05:30.673Z,53.00
2023-05-10T21:07:58.862Z,52.96
2023-05-10T21:10:28.455Z,53.24
2023-05-10T21:12:59.401Z,53.40
2023-05-10T21:15:27.790Z,53.21
2023-05-10T21:17:58.418Z,53.14
2023-05-10T21:20:26.873Z,53.71
2023-05-10T21:22:54.979Z,53.39
2023-05-10T21:25:23.558Z,53.71
2023-05-10T21:27:55.009Z,53.71
2023-05-10T21:30:23.396Z,53.40
2023-05-10T21:32:51.496Z,53.70
2023-05-10T21:35:19.847Z,53.64
2023-05-10T21:37:48.181Z,53.50
2023-05-10T21:40:16.634Z,53.49
2023-05-10T21:42:49.566Z,53.55
2023-05-10T21:45:20.833Z,53.80
2023-05-10T21:48:09.674Z,54.34
2023-05-10T21:50:38.036Z,54.13
2023-05-10T21:53:09.416Z,54.88
2023-05-10T21:55:40.690Z,55.58
2023-05-10T21:58:08.851Z,56.38
2023-05-10T22:00:37.155Z,56.20
2023-05-10T22:03:05.249Z,56.15
2023-05-10T22:05:36.773Z,56.55
2023-05-10T22:08:06.151Z,56.74
2023-05-10T22:10:34.721Z,56.91
2023-05-10T22:13:03.306Z,56.91
2023-05-10T22:15:34.212Z,57.23
2023-05-10T22:18:04.029Z,57.74
2023-05-10T22:20:32.957Z,58.17
2023-05-10T22:23:01.138Z,58.62
2023-05-10T22:25:29.315Z,58.65
2023-05-10T22:27:57.687Z,58.58
2023-05-10T22:30:25.986Z,59.32
2023-05-10T22:32:59.440Z,59.22
2023-05-10T22:35:27.743Z,59.21
2023-05-10T22:37:55.909Z,59.38
2023-05-10T22:40:24.085Z,60.05
2023-05-10T22:42:52.259Z,60.20
2023-05-10T22:45:20.343Z,60.62
2023-05-10T22:47:48.453Z,60.85
2023-05-10T22:50:17.233Z,60.56
2023-05-10T22:52:45.561Z,60.86
2023-05-10T22:55:13.814Z,60.98
2023-05-10T22:57:45.168Z,61.39
2023-05-10T23:00:14.184Z,61.77
2023-05-10T23:02:45.265Z,62.07
2023-05-10T23:05:13.820Z,62.11
2023-05-10T23:07:53.379Z,62.58
2023-05-10T23:10:22.033Z,63.30
2023-05-10T23:12:50.207Z,63.39
2023-05-10T23:15:18.693Z,63.41
2023-05-10T23:17:47.186Z,63.28
2023-05-10T23:20:16.003Z,62.67
2023-05-10T23:22:45.016Z,63.79
2023-05-10T23:25:13.119Z,64.12
2023-05-10T23:27:41.517Z,64.66
2023-05-10T23:30:10.030Z,64.66
2023-05-10T23:32:39.173Z,64.57
2023-05-10T23:35:08.284Z,65.19
2023-05-10T23:37:37.178Z,65.48
2023-05-10T23:40:06.438Z,64.69
2023-05-10T23:42:34.756Z,65.21
2023-05-10T23:45:03.131Z,65.29
2023-05-10T23:47:31.692Z,65.72
2023-05-10T23:50:00.162Z,66.06
2023-05-10T23:52:28.332Z,65.91
2023-05-10T23:54:56.668Z,65.68
2023-05-10T23:57:24.776Z,66.03
